createdAt,value
2019-02-21T00:02:11.932Z,23.80
2019-02-21T00:04:44.420Z,24.83
2019-02-21T00:07:15.940Z,22.80
2019-02-21T00:09:47.402Z,20.90
2019-02-21T00:12:20.529Z,24.73
2019-02-21T00:14:52.101Z,20.23
2019-02-21T00:17:23.630Z,23.10
2019-02-21T00:19:55.214Z,21.63
2019-02-21T00:22:26.756Z,22.37
2019-02-21T00:24:58.356Z,28.77
2019-02-21T00:27:29.957Z,27.60
2019-02-21T00:30:01.574Z,29.23
2019-02-21T00:32:33.556Z,27.83
2019-02-21T00:35:05.036Z,24.60
2019-02-21T00:37:36.535Z,28.60
2019-02-21T00:40:08.324Z,25.80
2019-02-21T00:42:39.812Z,20.50
2019-02-21T00:45:11.261Z,26.67
2019-02-21T00:47:42.718Z,25.80
2019-02-21T00:50:18.078Z,24.77
2019-02-21T00:52:49.580Z,27.23
2019-02-21T00:55:21.048Z,30.70
2019-02-21T00:57:52.558Z,26.67
2019-02-21T01:00:24.063Z,28.70
2019-02-21T01:02:55.559Z,23.10
2019-02-21T01:05:27.031Z,24.03
2019-02-21T01:07:58.498Z,29.43
2019-02-21T01:10:30.009Z,27.37
2019-02-21T01:13:02.666Z,23.70
2019-02-21T01:15:34.424Z,41.80
2019-02-21T01:18:05.972Z,29.83
2019-02-21T01:20:37.480Z,22.77
2019-02-21T01:23:08.986Z,26.93
2019-02-21T01:25:40.484Z,25.50
2019-02-21T01:28:11.990Z,26.73
2019-02-21T01:30:44.897Z,22.30
2019-02-21T01:33:16.300Z,25.63
2019-02-21T01:35:47.763Z,26.27
2019-02-21T01:38:19.240Z,29.57
2019-02-21T01:40:50.731Z,24.90
2019-02-21T01:43:22.244Z,24.87
2019-02-21T01:45:53.718Z,24.70
2019-02-21T01:48:25.213Z,26.77
2019-02-21T01:50:56.682Z,28.93
2019-02-21T01:53:28.171Z,27.73
2019-02-21T01:55:59.642Z,29.30
2019-02-21T01:58:31.138Z,23.43
2019-02-21T02:01:08.527Z,23.77
2019-02-21T02:03:36.278Z,30.93
2019-02-21T02:06:07.816Z,25.87
2019-02-21T02:08:39.303Z,28.00
2019-02-21T02:11:11.962Z,32.03
2019-02-21T02:13:43.451Z,30.63
2019-02-21T02:16:16.259Z,28.30
2019-02-21T02:18:49.302Z,23.97
2019-02-21T02:21:20.757Z,24.50
2019-02-21T02:23:52.304Z,28.47
2019-02-21T02:26:23.830Z,33.63
2019-02-21T02:28:56.784Z,23.10
2019-02-21T02:31:28.261Z,26.80
2019-02-21T02:33:59.762Z,24.07
2019-02-21T02:36:31.466Z,23.53
2019-02-21T02:39:04.208Z,33.30
2019-02-21T02:41:37.253Z,29.57
2019-02-21T02:44:08.800Z,26.57
2019-02-21T02:46:40.251Z,32.00
2019-02-21T02:49:12.087Z,27.33
2019-02-21T02:51:46.303Z,37.60
2019-02-21T02:54:17.882Z,27.60
2019-02-21T02:56:49.382Z,28.40
2019-02-21T02:59:21.221Z,31.17
2019-02-21T03:01:52.729Z,28.10
2019-02-21T03:04:24.350Z,29.33
2019-02-21T03:06:55.825Z,31.30
2019-02-21T03:09:29.158Z,32.60
2019-02-21T03:12:00.575Z,29.57
2019-02-21T03:14:32.052Z,29.43
2019-02-21T03:17:03.593Z,26.70
2019-02-21T03:19:35.042Z,36.30
2019-02-21T03:22:06.584Z,30.03
2019-02-21T03:24:39.708Z,29.33
2019-02-21T03:27:11.154Z,28.33
2019-02-21T03:29:45.643Z,26.00
2019-02-21T03:32:17.312Z,30.53
2019-02-21T03:34:48.778Z,27.87
2019-02-21T03:37:20.236Z,33.33
2019-02-21T03:39:51.682Z,31.53
2019-02-21T03:42:23.125Z,30.67
2019-02-21T03:44:54.571Z,29.30
2019-02-21T03:47:26.059Z,28.17
2019-02-21T03:49:58.039Z,34.17
2019-02-21T03:52:29.491Z,25.90
2019-02-21T03:55:01.191Z,27.40
2019-02-21T03:57:32.857Z,34.93
2019-02-21T04:00:04.405Z,27.73
2019-02-21T04:02:36.034Z,37.80
2019-02-21T04:05:07.772Z,33.60
2019-02-21T04:07:39.265Z,28.63
2019-02-21T04:10:10.846Z,29.40
2019-02-21T04:12:42.315Z,28.17
2019-02-21T04:15:14.947Z,31.83
2019-02-21T04:17:46.389Z,36.43
2019-02-21T04:20:17.883Z,28.90
2019-02-21T04:22:49.339Z,32.53
2019-02-21T04:25:24.763Z,28.10
2019-02-21T04:27:56.231Z,28.77
2019-02-21T04:30:28.071Z,33.83
2019-02-21T04:32:59.585Z,34.23
2019-02-21T04:35:31.146Z,31.20
2019-02-21T04:38:02.631Z,30.83
2019-02-21T04:40:34.572Z,27.23
2019-02-21T04:43:06.211Z,30.83
2019-02-21T04:45:37.716Z,36.20
2019-02-21T04:48:09.581Z,30.90
2019-02-21T04:50:42.104Z,32.33
2019-02-21T04:53:13.684Z,30.70
2019-02-21T04:55:45.182Z,26.70
2019-02-21T04:58:17.732Z,30.97
2019-02-21T05:00:53.819Z,26.73
2019-02-21T05:03:25.275Z,27.90
2019-02-21T05:05:56.782Z,28.40
2019-02-21T05:08:28.236Z,32.53
2019-02-21T05:10:59.731Z,29.73
2019-02-21T05:13:33.802Z,28.07
2019-02-21T05:16:05.601Z,28.83
2019-02-21T05:18:37.148Z,37.17
2019-02-21T05:21:08.627Z,33.83
2019-02-21T05:23:40.078Z,28.97
2019-02-21T05:26:14.202Z,31.93
2019-02-21T05:28:47.374Z,33.60
2019-02-21T05:31:40.684Z,30.93
2019-02-21T05:34:29.901Z,40.70
2019-02-21T05:37:20.518Z,33.23
2019-02-21T05:40:09.858Z,34.77
2019-02-21T05:43:03.036Z,29.57
2019-02-21T05:45:52.275Z,38.80
2019-02-21T05:48:51.869Z,30.33
2019-02-21T05:51:29.366Z,32.60
2019-02-21T05:54:25.594Z,30.93
2019-02-21T05:57:09.526Z,34.70
2019-02-21T05:59:56.674Z,32.03
2019-02-21T06:02:38.128Z,29.60
2019-02-21T06:05:28.434Z,32.03
2019-02-21T06:08:17.508Z,31.40
2019-02-21T06:11:01.561Z,30.97
2019-02-21T06:13:47.418Z,31.40
2019-02-21T06:16:40.652Z,34.27
2019-02-21T06:19:28.216Z,29.97
2019-02-21T06:22:11.689Z,32.73
2019-02-21T06:24:52.714Z,37.80
2019-02-21T06:27:29.710Z,30.10
2019-02-21T06:30:08.747Z,29.27
2019-02-21T06:32:40.932Z,38.00
2019-02-21T06:35:12.642Z,36.40
2019-02-21T06:37:44.144Z,32.60
2019-02-21T06:40:15.605Z,29.43
2019-02-21T06:42:47.153Z,27.90
2019-02-21T06:45:18.698Z,35.27
2019-02-21T06:47:50.149Z,33.00
2019-02-21T06:50:26.772Z,27.87
2019-02-21T06:52:55.453Z,30.30
2019-02-21T06:55:26.965Z,33.43
2019-02-21T06:57:58.540Z,32.40
2019-02-21T07:00:33.050Z,32.07
2019-02-21T07:03:15.143Z,32.33
2019-02-21T07:05:38.973Z,34.97
2019-02-21T07:08:10.465Z,35.00
2019-02-21T07:10:41.975Z,31.50
2019-02-21T07:13:25.691Z,31.10
2019-02-21T07:15:47.042Z,30.67
2019-02-21T07:18:18.617Z,27.57
2019-02-21T07:20:50.081Z,32.60
2019-02-21T07:23:22.521Z,27.53
2019-02-21T07:26:06.464Z,34.30
2019-02-21T07:28:46.036Z,38.63
2019-02-21T07:31:28.181Z,39.67
2019-02-21T07:33:50.830Z,33.93
2019-02-21T07:36:22.244Z,27.87
2019-02-21T07:39:08.411Z,33.30
2019-02-21T07:41:45.966Z,34.30
2019-02-21T07:44:17.545Z,37.80
2019-02-21T07:46:49.035Z,29.20
2019-02-21T07:49:20.585Z,31.57
2019-02-21T07:51:52.165Z,26.97
2019-02-21T07:54:23.655Z,30.43
2019-02-21T07:56:55.129Z,36.47
2019-02-21T07:59:27.695Z,45.53
2019-02-21T08:01:59.212Z,29.10
2019-02-21T08:04:32.184Z,29.20
2019-02-21T08:07:03.714Z,38.27
2019-02-21T08:09:35.297Z,28.23
2019-02-21T08:12:07.676Z,30.30
2019-02-21T08:14:43.328Z,31.27
2019-02-21T08:17:16.193Z,27.13
2019-02-21T08:19:47.333Z,40.07
2019-02-21T08:22:18.843Z,31.50
2019-02-21T08:24:50.523Z,33.53
2019-02-21T08:27:21.981Z,37.67
2019-02-21T08:29:53.533Z,34.60
2019-02-21T08:32:30.769Z,30.50
2019-02-21T08:35:02.297Z,30.30
2019-02-21T08:37:36.025Z,30.43
2019-02-21T08:40:12.950Z,30.10
2019-02-21T08:42:44.626Z,32.00
2019-02-21T08:45:17.859Z,39.30
2019-02-21T08:47:49.853Z,25.00
2019-02-21T08:50:22.483Z,29.70
2019-02-21T08:52:54.165Z,40.40
2019-02-21T08:55:25.639Z,32.63
2019-02-21T08:57:58.555Z,28.20
2019-02-21T09:00:31.676Z,35.53
2019-02-21T09:03:03.465Z,30.97
2019-02-21T09:05:35.411Z,31.73
2019-02-21T09:08:19.940Z,31.10
2019-02-21T09:10:51.947Z,31.80
2019-02-21T09:13:24.052Z,29.90
2019-02-21T09:15:56.023Z,35.83
2019-02-21T09:18:27.729Z,35.00
2019-02-21T09:20:59.557Z,28.80
2019-02-21T09:23:31.192Z,34.40
2019-02-21T09:26:03.071Z,39.77
2019-02-21T09:28:34.623Z,31.97
2019-02-21T09:31:06.229Z,33.87
2019-02-21T09:33:37.881Z,33.47
2019-02-21T09:36:09.339Z,34.50
2019-02-21T09:38:40.825Z,37.33
2019-02-21T09:41:12.642Z,28.37
2019-02-21T09:43:44.185Z,35.47
2019-02-21T09:46:15.764Z,35.90
2019-02-21T09:48:47.313Z,34.13
2019-02-21T09:51:18.919Z,43.20
2019-02-21T09:53:50.369Z,30.83
2019-02-21T09:56:29.900Z,38.50
2019-02-21T09:58:55.116Z,25.57
2019-02-21T10:01:26.763Z,31.70
2019-02-21T10:03:58.371Z,31.80
2019-02-21T10:06:30.185Z,34.73
2019-02-21T10:09:01.992Z,32.83
2019-02-21T10:11:35.161Z,35.30
2019-02-21T10:14:06.672Z,34.63
2019-02-21T10:16:38.192Z,33.23
2019-02-21T10:19:09.839Z,26.33
2019-02-21T10:21:41.329Z,30.80
2019-02-21T10:24:13.909Z,29.97
2019-02-21T10:26:45.525Z,25.70
2019-02-21T10:29:17.012Z,32.10
2019-02-21T10:31:48.564Z,33.20
2019-02-21T10:34:21.855Z,33.33
2019-02-21T10:36:53.439Z,35.50
2019-02-21T10:39:24.899Z,32.70
2019-02-21T10:41:56.620Z,36.73
2019-02-21T10:44:28.279Z,30.47
2019-02-21T10:47:00.173Z,34.27
2019-02-21T10:49:31.685Z,30.67
2019-02-21T10:52:03.608Z,34.97
2019-02-21T10:54:36.736Z,30.80
2019-02-21T10:57:08.554Z,36.23
2019-02-21T10:59:46.769Z,33.50
2019-02-21T11:02:13.547Z,29.87
2019-02-21T11:04:54.420Z,41.47
2019-02-21T11:07:18.395Z,35.13
2019-02-21T11:09:49.926Z,32.40
2019-02-21T11:12:21.668Z,41.13
2019-02-21T11:14:53.204Z,32.17
2019-02-21T11:17:25.859Z,38.10
2019-02-21T11:19:57.593Z,33.87
2019-02-21T11:22:29.131Z,32.80
2019-02-21T11:25:00.678Z,29.20
2019-02-21T11:27:34.770Z,34.00
2019-02-21T11:30:09.490Z,31.07
2019-02-21T11:32:46.933Z,32.23
2019-02-21T11:35:18.768Z,36.00
2019-02-21T11:37:50.326Z,33.23
2019-02-21T11:40:21.854Z,33.50
2019-02-21T11:42:53.424Z,43.47
2019-02-21T11:45:24.996Z,40.23
2019-02-21T11:47:56.486Z,38.80
2019-02-21T11:50:27.960Z,34.93
2019-02-21T11:52:59.558Z,38.50
2019-02-21T11:55:32.541Z,34.10
2019-02-21T11:58:04.089Z,35.83
2019-02-21T12:00:38.220Z,37.40
2019-02-21T12:03:09.702Z,46.13
2019-02-21T12:05:41.214Z,35.80
2019-02-21T12:08:12.762Z,36.73
2019-02-21T12:10:44.292Z,48.27
2019-02-21T12:13:16.288Z,36.23
2019-02-21T12:15:48.978Z,42.93
2019-02-21T12:18:20.667Z,41.53
2019-02-21T12:20:55.507Z,48.87
2019-02-21T12:23:27.081Z,49.10
2019-02-21T12:25:58.561Z,40.90
2019-02-21T12:28:32.314Z,49.50
2019-02-21T12:31:03.783Z,38.40
2019-02-21T12:33:35.354Z,43.73
2019-02-21T12:36:07.022Z,47.80
2019-02-21T12:38:38.581Z,43.73
2019-02-21T12:41:10.288Z,41.87
2019-02-21T12:43:41.991Z,39.70
2019-02-21T12:46:13.546Z,38.00
2019-02-21T12:48:45.126Z,35.97
2019-02-21T12:51:16.810Z,54.67
2019-02-21T12:53:48.356Z,48.30
2019-02-21T12:56:19.842Z,52.20
2019-02-21T12:58:51.376Z,48.13
2019-02-21T13:01:22.913Z,43.30
2019-02-21T13:03:54.567Z,43.60
2019-02-21T13:06:26.058Z,41.63
2019-02-21T13:08:57.633Z,40.17
2019-02-21T13:11:29.236Z,40.93
2019-02-21T13:14:00.836Z,42.07
2019-02-21T13:16:32.479Z,48.40
2019-02-21T13:19:04.207Z,39.73
2019-02-21T13:21:35.696Z,44.63
2019-02-21T13:24:07.402Z,40.23
2019-02-21T13:26:38.888Z,34.67
2019-02-21T13:29:10.687Z,51.33
2019-02-21T13:31:42.471Z,36.57
2019-02-21T13:34:14.041Z,36.93
2019-02-21T13:36:47.696Z,39.20
2019-02-21T13:39:19.419Z,37.40
2019-02-21T13:41:52.534Z,44.50
2019-02-21T13:44:25.440Z,43.67
2019-02-21T13:46:57.957Z,47.80
2019-02-21T13:49:29.500Z,39.90
2019-02-21T13:52:01.019Z,39.23
2019-02-21T13:54:32.733Z,49.30
2019-02-21T13:57:04.381Z,43.80
2019-02-21T13:59:35.939Z,35.83
2019-02-21T14:02:07.757Z,39.13
2019-02-21T14:04:39.395Z,39.40
2019-02-21T14:07:11.061Z,40.83
2019-02-21T14:09:43.632Z,35.80
2019-02-21T14:12:15.190Z,37.37
2019-02-21T14:14:47.843Z,32.53
2019-02-21T14:17:19.384Z,32.10
2019-02-21T14:19:52.993Z,37.83
2019-02-21T14:22:24.143Z,44.67
2019-02-21T14:24:57.431Z,36.80
2019-02-21T14:27:31.753Z,36.40
2019-02-21T14:30:03.720Z,42.07
2019-02-21T14:32:35.295Z,45.63
2019-02-21T14:35:07.782Z,38.10
2019-02-21T14:37:39.525Z,39.37
2019-02-21T14:40:13.163Z,36.83
2019-02-21T14:42:45.083Z,42.57
2019-02-21T14:45:18.226Z,62.60
2019-02-21T14:47:49.685Z,42.17
2019-02-21T14:50:21.162Z,47.90
2019-02-21T14:52:52.789Z,50.00
2019-02-21T14:55:31.956Z,48.47
2019-02-21T14:58:05.121Z,42.10
2019-02-21T15:00:36.720Z,50.00
2019-02-21T15:03:08.260Z,40.93
2019-02-21T15:05:39.866Z,43.17
2019-02-21T15:08:11.412Z,44.70
2019-02-21T15:10:42.958Z,47.73
2019-02-21T15:13:14.497Z,44.30
2019-02-21T15:15:46.163Z,46.93
2019-02-21T15:18:17.888Z,48.37
2019-02-21T15:20:49.757Z,55.37
2019-02-21T15:23:21.467Z,49.47
2019-02-21T15:25:53.646Z,47.60
2019-02-21T15:28:30.595Z,41.60
2019-02-21T15:31:02.209Z,45.30
2019-02-21T15:33:36.395Z,52.97
2019-02-21T15:36:08.009Z,44.23
2019-02-21T15:38:39.600Z,44.63
2019-02-21T15:41:11.134Z,44.43
2019-02-21T15:43:42.623Z,42.80
2019-02-21T15:46:14.180Z,41.57
2019-02-21T15:48:45.666Z,39.93
2019-02-21T15:51:17.507Z,39.40
2019-02-21T15:53:50.484Z,35.03
2019-02-21T15:56:22.044Z,41.63
2019-02-21T15:58:53.555Z,42.43
2019-02-21T16:01:47.548Z,43.90
2019-02-21T16:04:29.655Z,39.43
2019-02-21T16:07:01.161Z,39.23
2019-02-21T16:09:32.656Z,40.93
2019-02-21T16:12:05.759Z,40.10
2019-02-21T16:14:37.857Z,37.17
2019-02-21T16:17:09.574Z,37.73
2019-02-21T16:19:41.114Z,31.63
2019-02-21T16:22:12.806Z,39.33
2019-02-21T16:24:44.288Z,33.07
2019-02-21T16:27:16.912Z,41.23
2019-02-21T16:29:48.572Z,35.70
2019-02-21T16:32:20.093Z,37.10
2019-02-21T16:34:51.607Z,34.60
2019-02-21T16:37:23.065Z,34.90
2019-02-21T16:39:55.536Z,32.50
2019-02-21T16:42:27.990Z,31.00
2019-02-21T16:44:59.582Z,32.47
2019-02-21T16:47:31.223Z,29.57
2019-02-21T16:50:05.549Z,27.63
2019-02-21T16:52:37.312Z,36.07
2019-02-21T16:55:11.781Z,32.73
2019-02-21T16:57:44.245Z,27.00
2019-02-21T17:00:17.277Z,21.30
2019-02-21T17:02:48.811Z,27.03
2019-02-21T17:05:20.281Z,22.53
2019-02-21T17:07:52.460Z,24.57
2019-02-21T17:10:24.026Z,23.23
2019-02-21T17:13:06.252Z,22.60
2019-02-21T17:15:37.958Z,20.43
2019-02-21T17:18:09.606Z,21.17
2019-02-21T17:20:41.212Z,19.47
2019-02-21T17:23:22.550Z,19.80
2019-02-21T17:25:46.261Z,19.57
2019-02-21T17:28:19.346Z,19.23
2019-02-21T17:30:50.855Z,18.03
2019-02-21T17:33:22.388Z,17.37
2019-02-21T17:35:54.030Z,17.10
2019-02-21T17:38:25.556Z,17.73
2019-02-21T17:40:57.038Z,17.03
2019-02-21T17:43:28.779Z,17.20
2019-02-21T17:46:00.231Z,16.53
2019-02-21T17:48:31.971Z,19.70
2019-02-21T17:51:03.434Z,16.63
2019-02-21T17:53:34.960Z,23.70
2019-02-21T17:56:06.700Z,19.57
2019-02-21T17:58:40.320Z,22.17
2019-02-21T18:01:11.820Z,23.97
2019-02-21T18:03:43.415Z,23.97
2019-02-21T18:06:14.956Z,24.03
2019-02-21T18:08:46.491Z,26.93
2019-02-21T18:11:18.020Z,25.90
2019-02-21T18:13:49.690Z,26.43
2019-02-21T18:16:23.018Z,27.07
2019-02-21T18:18:54.562Z,26.00
2019-02-21T18:21:27.116Z,30.07
2019-02-21T18:24:01.500Z,28.33
2019-02-21T18:26:35.142Z,33.00
2019-02-21T18:29:07.264Z,37.80
2019-02-21T18:31:38.885Z,32.93
2019-02-21T18:34:10.374Z,25.20
2019-02-21T18:36:41.853Z,26.30
2019-02-21T18:39:13.360Z,28.03
2019-02-21T18:41:45.014Z,30.20
2019-02-21T18:44:16.622Z,29.90
2019-02-21T18:46:48.229Z,27.37
2019-02-21T18:49:19.853Z,28.27
2019-02-21T18:51:51.740Z,27.87
2019-02-21T18:54:25.348Z,25.40
2019-02-21T18:56:57.072Z,27.00
2019-02-21T18:59:31.719Z,26.23
2019-02-21T19:02:02.067Z,25.53
2019-02-21T19:04:34.122Z,20.93
2019-02-21T19:07:05.843Z,22.53
2019-02-21T19:09:37.490Z,20.40
2019-02-21T19:12:10.208Z,24.37
2019-02-21T19:14:43.543Z,22.00
2019-02-21T19:17:15.082Z,20.70
2019-02-21T19:19:46.694Z,20.40
2019-02-21T19:22:18.222Z,26.87
2019-02-21T19:24:49.716Z,21.77
2019-02-21T19:27:21.204Z,27.37
2019-02-21T19:29:52.758Z,26.70
2019-02-21T19:32:30.254Z,24.13
2019-02-21T19:35:02.028Z,31.63
2019-02-21T19:37:35.589Z,27.33
2019-02-21T19:40:08.158Z,26.07
2019-02-21T19:42:41.154Z,27.10
2019-02-21T19:45:12.695Z,28.50
2019-02-21T19:47:44.234Z,29.27
2019-02-21T19:50:15.820Z,31.73
2019-02-21T19:52:47.474Z,26.13
2019-02-21T19:55:19.021Z,31.20
2019-02-21T19:57:51.497Z,36.80
2019-02-21T20:00:29.459Z,33.97
2019-02-21T20:03:01.555Z,30.20
2019-02-21T20:05:35.886Z,37.93
2019-02-21T20:08:09.054Z,36.70
2019-02-21T20:10:44.070Z,37.50
2019-02-21T20:13:15.545Z,33.77
2019-02-21T20:15:47.471Z,33.03
2019-02-21T20:18:19.094Z,41.53
2019-02-21T20:20:50.668Z,30.03
2019-02-21T20:23:22.222Z,36.10
2019-02-21T20:25:55.491Z,38.43
2019-02-21T20:28:27.174Z,38.77
2019-02-21T20:31:00.183Z,38.93
2019-02-21T20:33:31.793Z,41.40
2019-02-21T20:36:03.368Z,46.77
2019-02-21T20:38:35.158Z,41.10
2019-02-21T20:41:06.813Z,44.70
2019-02-21T20:43:40.461Z,53.67
2019-02-21T20:46:12.696Z,37.90
2019-02-21T20:48:45.030Z,54.10
2019-02-21T20:51:16.627Z,54.00
2019-02-21T20:53:48.877Z,58.27
2019-02-21T20:56:20.482Z,60.10
2019-02-21T20:58:51.987Z,64.97
2019-02-21T21:01:23.849Z,72.10
2019-02-21T21:03:55.358Z,73.40
2019-02-21T21:06:27.063Z,64.13
2019-02-21T21:09:00.220Z,73.70
2019-02-21T21:11:33.411Z,60.93
2019-02-21T21:14:05.443Z,68.70
2019-02-21T21:16:37.030Z,81.63
2019-02-21T21:19:08.522Z,77.47
2019-02-21T21:21:41.620Z,74.87
2019-02-21T21:24:14.585Z,77.10
2019-02-21T21:26:47.157Z,70.30
2019-02-21T21:29:22.257Z,74.00
2019-02-21T21:31:59.283Z,79.07
2019-02-21T21:34:30.994Z,67.80
2019-02-21T21:37:02.620Z,77.50
2019-02-21T21:39:34.276Z,81.20
2019-02-21T21:42:08.259Z,71.30
2019-02-21T21:44:39.122Z,74.93
2019-02-21T21:47:10.829Z,72.33
2019-02-21T21:49:42.376Z,74.90
2019-02-21T21:52:13.951Z,62.13
2019-02-21T21:54:45.400Z,78.00
2019-02-21T21:57:16.887Z,71.33
2019-02-21T21:59:48.422Z,76.57
2019-02-21T22:02:20.083Z,82.70
2019-02-21T22:04:51.617Z,84.53
2019-02-21T22:07:23.621Z,93.40
2019-02-21T22:09:55.354Z,69.73
2019-02-21T22:12:30.115Z,79.20
2019-02-21T22:15:02.848Z,98.73
2019-02-21T22:17:35.957Z,112.80
2019-02-21T22:20:07.984Z,111.10
2019-02-21T22:22:39.498Z,110.83
2019-02-21T22:25:11.874Z,94.83
2019-02-21T22:27:45.374Z,93.77
2019-02-21T22:30:17.722Z,105.70
2019-02-21T22:32:49.205Z,116.10
2019-02-21T22:35:20.665Z,105.57
2019-02-21T22:37:53.721Z,128.23
2019-02-21T22:40:28.480Z,89.13
2019-02-21T22:43:08.779Z,105.13
2019-02-21T22:45:49.187Z,118.20
2019-02-21T22:48:20.693Z,133.47
2019-02-21T22:50:52.258Z,134.90
2019-02-21T22:53:23.759Z,112.33
2019-02-21T22:55:55.226Z,135.13
2019-02-21T22:58:29.733Z,103.90
2019-02-21T23:01:29.232Z,142.00
2019-02-21T23:04:28.768Z,126.90
2019-02-21T23:07:40.760Z,108.47
2019-02-21T23:10:22.302Z,125.03
2019-02-21T23:13:00.908Z,123.30
2019-02-21T23:15:43.111Z,121.63
2019-02-21T23:18:19.888Z,133.43
2019-02-21T23:21:14.263Z,95.33
2019-02-21T23:23:49.530Z,103.07
2019-02-21T23:26:46.723Z,109.70
2019-02-21T23:29:19.800Z,116.67
2019-02-21T23:31:51.340Z,109.70
2019-02-21T23:34:33.538Z,104.63
2019-02-21T23:37:05.268Z,91.93
2019-02-21T23:39:41.638Z,109.27
2019-02-21T23:43:14.870Z,90.40
2019-02-21T23:45:46.480Z,96.30
2019-02-21T23:48:17.945Z,107.77
2019-02-21T23:50:49.554Z,105.73
2019-02-21T23:53:21.090Z,112.73
2019-02-21T23:55:52.529Z,102.40
2019-02-21T23:58:24.024Z,97.17
